FRM weather

Fairmont Municipal Airport
Fairmont, Minnesota, United States

Public forecast

Using degrees Fahrenheit for public forecast. Weather courtesy of forecast.io.

Current aviation weather report (METAR) for Fairmont Municipal Airport

Retrieved 2020/04/10 01:56 UTC (57 minutes ago):

KFRM 100156Z AUTO 33014KT 10SM CLR 00/M06 A3012 RMK AO2 SLP216 T00001061 FZRANO

Closest aviation forecast (TAF) to Fairmont Municipal Airport

Closest forecast is Mankato Regional Airport, 40.8 nm (75.6 km) NNE. Retrieved 2020-04-10 00:30 UTC (2 hours ago):

TAF KMKT 092327Z 1000/1024 32017G26KT P6SM BKN050 FM100200 32013G21KT P6SM BKN050 FM100600 30008KT P6SM SKC FM101700 26007KT P6SM FEW250 FM102000 23009KT P6SM SCT200